sensor_id;sensor_type;location;lat;lon;timestamp;P1;durP1;ratioP1;P2;durP2;ratioP2
14141;SDS011;7151;52.246;4.820;2023-07-16T00:02:22;4.77;;;1.43;;
14141;SDS011;7151;52.246;4.820;2023-07-16T00:04:47;4.33;;;1.67;;
14141;SDS011;7151;52.246;4.820;2023-07-16T00:07:13;2.50;;;1.20;;
14141;SDS011;7151;52.246;4.820;2023-07-16T00:09:38;4.10;;;1.33;;
14141;SDS011;7151;52.246;4.820;2023-07-16T00:12:04;2.70;;;1.27;;
14141;SDS011;7151;52.246;4.820;2023-07-16T00:14:30;4.97;;;1.63;;
14141;SDS011;7151;52.246;4.820;2023-07-16T00:16:55;3.30;;;1.40;;
14141;SDS011;7151;52.246;4.820;2023-07-16T00:19:22;3.00;;;1.23;;
14141;SDS011;7151;52.246;4.820;2023-07-16T00:21:48;4.83;;;1.33;;
14141;SDS011;7151;52.246;4.820;2023-07-16T00:24:13;4.87;;;1.67;;
14141;SDS011;7151;52.246;4.820;2023-07-16T00:26:39;4.07;;;1.13;;
14141;SDS011;7151;52.246;4.820;2023-07-16T00:29:04;5.23;;;1.43;;
14141;SDS011;7151;52.246;4.820;2023-07-16T00:31:30;2.13;;;1.20;;
14141;SDS011;7151;52.246;4.820;2023-07-16T00:33:56;4.20;;;1.60;;
14141;SDS011;7151;52.246;4.820;2023-07-16T00:36:23;6.63;;;1.60;;
14141;SDS011;7151;52.246;4.820;2023-07-16T00:38:48;3.03;;;1.60;;
14141;SDS011;7151;52.246;4.820;2023-07-16T00:41:15;2.67;;;1.97;;
14141;SDS011;7151;52.246;4.820;2023-07-16T00:43:40;6.63;;;1.70;;
14141;SDS011;7151;52.246;4.820;2023-07-16T00:46:06;4.23;;;2.10;;
14141;SDS011;7151;52.246;4.820;2023-07-16T00:48:33;3.97;;;1.77;;
14141;SDS011;7151;52.246;4.820;2023-07-16T00:50:59;4.57;;;2.07;;
14141;SDS011;7151;52.246;4.820;2023-07-16T00:53:26;3.73;;;1.80;;
14141;SDS011;7151;52.246;4.820;2023-07-16T00:55:52;3.53;;;1.67;;
14141;SDS011;7151;52.246;4.820;2023-07-16T00:58:17;2.37;;;1.63;;
14141;SDS011;7151;52.246;4.820;2023-07-16T01:00:43;4.07;;;1.93;;
14141;SDS011;7151;52.246;4.820;2023-07-16T01:03:10;3.80;;;2.50;;
14141;SDS011;7151;52.246;4.820;2023-07-16T01:05:59;3.83;;;1.60;;
14141;SDS011;7151;52.246;4.820;2023-07-16T01:08:38;6.53;;;2.17;;
14141;SDS011;7151;52.246;4.820;2023-07-16T01:11:06;5.63;;;2.10;;
14141;SDS011;7151;52.246;4.820;2023-07-16T01:13:32;5.40;;;1.53;;
14141;SDS011;7151;52.246;4.820;2023-07-16T01:15:59;4.00;;;2.00;;
14141;SDS011;7151;52.246;4.820;2023-07-16T01:18:25;2.70;;;1.50;;
14141;SDS011;7151;52.246;4.820;2023-07-16T01:20:50;3.30;;;1.73;;
14141;SDS011;7151;52.246;4.820;2023-07-16T01:29:07;6.23;;;2.40;;
14141;SDS011;7151;52.246;4.820;2023-07-16T01:31:54;4.33;;;1.80;;
14141;SDS011;7151;52.246;4.820;2023-07-16T01:34:21;6.10;;;2.30;;
14141;SDS011;7151;52.246;4.820;2023-07-16T01:36:49;3.93;;;1.70;;
14141;SDS011;7151;52.246;4.820;2023-07-16T01:39:14;5.87;;;2.00;;
14141;SDS011;7151;52.246;4.820;2023-07-16T01:41:41;5.57;;;2.57;;
14141;SDS011;7151;52.246;4.820;2023-07-16T01:44:06;3.97;;;2.03;;
14141;SDS011;7151;52.246;4.820;2023-07-16T01:46:35;5.33;;;1.87;;
14141;SDS011;7151;52.246;4.820;2023-07-16T01:49:00;7.17;;;2.40;;
14141;SDS011;7151;52.246;4.820;2023-07-16T01:51:26;4.03;;;1.93;;
14141;SDS011;7151;52.246;4.820;2023-07-16T01:53:51;9.03;;;2.43;;
14141;SDS011;7151;52.246;4.820;2023-07-16T01:56:17;3.50;;;1.87;;
14141;SDS011;7151;52.246;4.820;2023-07-16T01:58:42;5.27;;;2.00;;
14141;SDS011;7151;52.246;4.820;2023-07-16T02:01:08;3.97;;;2.80;;
14141;SDS011;7151;52.246;4.820;2023-07-16T02:03:33;4.13;;;2.07;;
14141;SDS011;7151;52.246;4.820;2023-07-16T02:05:59;8.23;;;2.53;;
14141;SDS011;7151;52.246;4.820;2023-07-16T02:08:24;7.03;;;2.87;;
14141;SDS011;7151;52.246;4.820;2023-07-16T02:10:50;3.77;;;2.43;;
14141;SDS011;7151;52.246;4.820;2023-07-16T02:13:15;4.73;;;2.57;;
14141;SDS011;7151;52.246;4.820;2023-07-16T02:15:42;9.67;;;2.90;;
14141;SDS011;7151;52.246;4.820;2023-07-16T02:18:07;8.17;;;2.90;;
14141;SDS011;7151;52.246;4.820;2023-07-16T02:20:33;4.93;;;2.23;;
14141;SDS011;7151;52.246;4.820;2023-07-16T02:22:59;5.77;;;2.50;;
14141;SDS011;7151;52.246;4.820;2023-07-16T02:25:24;4.87;;;2.60;;
14141;SDS011;7151;52.246;4.820;2023-07-16T02:27:50;4.93;;;2.97;;
14141;SDS011;7151;52.246;4.820;2023-07-16T02:30:16;5.70;;;2.80;;
14141;SDS011;7151;52.246;4.820;2023-07-16T02:32:42;7.23;;;3.10;;
14141;SDS011;7151;52.246;4.820;2023-07-16T02:35:08;7.00;;;2.70;;
14141;SDS011;7151;52.246;4.820;2023-07-16T02:37:34;8.87;;;3.03;;
14141;SDS011;7151;52.246;4.820;2023-07-16T02:39:59;5.40;;;2.60;;
14141;SDS011;7151;52.246;4.820;2023-07-16T02:42:25;6.70;;;2.90;;
14141;SDS011;7151;52.246;4.820;2023-07-16T02:44:51;9.93;;;3.63;;
14141;SDS011;7151;52.246;4.820;2023-07-16T02:47:16;5.57;;;2.37;;
14141;SDS011;7151;52.246;4.820;2023-07-16T02:49:42;3.87;;;2.83;;
14141;SDS011;7151;52.246;4.820;2023-07-16T02:52:08;7.17;;;3.00;;
14141;SDS011;7151;52.246;4.820;2023-07-16T02:54:35;4.80;;;2.60;;
14141;SDS011;7151;52.246;4.820;2023-07-16T02:57:01;5.93;;;2.70;;
14141;SDS011;7151;52.246;4.820;2023-07-16T02:59:26;5.97;;;2.90;;
14141;SDS011;7151;52.246;4.820;2023-07-16T03:01:52;5.50;;;2.57;;
14141;SDS011;7151;52.246;4.820;2023-07-16T03:04:18;9.33;;;4.13;;
14141;SDS011;7151;52.246;4.820;2023-07-16T03:06:44;7.93;;;3.00;;
14141;SDS011;7151;52.246;4.820;2023-07-16T03:09:10;7.70;;;3.13;;
14141;SDS011;7151;52.246;4.820;2023-07-16T03:11:35;10.30;;;2.50;;
14141;SDS011;7151;52.246;4.820;2023-07-16T03:14:01;3.33;;;2.77;;
14141;SDS011;7151;52.246;4.820;2023-07-16T03:16:26;8.37;;;2.97;;
14141;SDS011;7151;52.246;4.820;2023-07-16T03:18:52;5.00;;;2.57;;
14141;SDS011;7151;52.246;4.820;2023-07-16T03:21:18;5.60;;;2.73;;
14141;SDS011;7151;52.246;4.820;2023-07-16T03:23:43;5.17;;;3.00;;
14141;SDS011;7151;52.246;4.820;2023-07-16T03:26:09;4.93;;;2.73;;
14141;SDS011;7151;52.246;4.820;2023-07-16T03:28:34;5.63;;;2.93;;
14141;SDS011;7151;52.246;4.820;2023-07-16T03:31:00;10.43;;;3.20;;
14141;SDS011;7151;52.246;4.820;2023-07-16T03:33:26;7.77;;;3.23;;
14141;SDS011;7151;52.246;4.820;2023-07-16T03:35:51;7.17;;;2.93;;
14141;SDS011;7151;52.246;4.820;2023-07-16T03:38:17;3.73;;;2.50;;
14141;SDS011;7151;52.246;4.820;2023-07-16T03:40:45;3.90;;;2.63;;
14141;SDS011;7151;52.246;4.820;2023-07-16T03:43:13;4.80;;;2.37;;
14141;SDS011;7151;52.246;4.820;2023-07-16T03:45:39;5.57;;;2.47;;
14141;SDS011;7151;52.246;4.820;2023-07-16T03:48:04;5.00;;;2.80;;
14141;SDS011;7151;52.246;4.820;2023-07-16T03:50:30;3.93;;;2.60;;
14141;SDS011;7151;52.246;4.820;2023-07-16T03:52:55;6.80;;;2.43;;
14141;SDS011;7151;52.246;4.820;2023-07-16T03:55:21;6.07;;;2.47;;
14141;SDS011;7151;52.246;4.820;2023-07-16T03:57:46;5.27;;;2.10;;
14141;SDS011;7151;52.246;4.820;2023-07-16T04:00:12;7.83;;;2.50;;
14141;SDS011;7151;52.246;4.820;2023-07-16T04:02:38;2.10;;;1.63;;
14141;SDS011;7151;52.246;4.820;2023-07-16T04:05:03;5.10;;;2.00;;
14141;SDS011;7151;52.246;4.820;2023-07-16T04:07:29;6.03;;;2.40;;
14141;SDS011;7151;52.246;4.820;2023-07-16T04:09:55;3.77;;;1.93;;
14141;SDS011;7151;52.246;4.820;2023-07-16T04:12:20;6.07;;;2.50;;
14141;SDS011;7151;52.246;4.820;2023-07-16T04:14:46;3.27;;;2.33;;
14141;SDS011;7151;52.246;4.820;2023-07-16T04:17:12;5.37;;;2.40;;
14141;SDS011;7151;52.246;4.820;2023-07-16T04:19:38;5.87;;;2.47;;
14141;SDS011;7151;52.246;4.820;2023-07-16T04:22:03;4.80;;;2.50;;
14141;SDS011;7151;52.246;4.820;2023-07-16T04:24:29;5.50;;;2.63;;
14141;SDS011;7151;52.246;4.820;2023-07-16T04:26:55;4.50;;;3.03;;
14141;SDS011;7151;52.246;4.820;2023-07-16T04:29:21;6.23;;;2.13;;
14141;SDS011;7151;52.246;4.820;2023-07-16T04:31:46;6.90;;;2.80;;
14141;SDS011;7151;52.246;4.820;2023-07-16T04:34:12;5.13;;;2.30;;
14141;SDS011;7151;52.246;4.820;2023-07-16T04:36:38;5.00;;;2.47;;
14141;SDS011;7151;52.246;4.820;2023-07-16T04:39:03;6.27;;;2.60;;
14141;SDS011;7151;52.246;4.820;2023-07-16T04:41:29;3.63;;;2.57;;
14141;SDS011;7151;52.246;4.820;2023-07-16T04:43:55;4.13;;;2.23;;
14141;SDS011;7151;52.246;4.820;2023-07-16T04:46:20;3.20;;;2.70;;
14141;SDS011;7151;52.246;4.820;2023-07-16T04:48:46;5.80;;;2.47;;
14141;SDS011;7151;52.246;4.820;2023-07-16T04:51:11;5.47;;;2.67;;
14141;SDS011;7151;52.246;4.820;2023-07-16T04:53:37;5.60;;;2.93;;
14141;SDS011;7151;52.246;4.820;2023-07-16T04:56:03;4.87;;;2.27;;
14141;SDS011;7151;52.246;4.820;2023-07-16T04:58:28;5.10;;;2.17;;
14141;SDS011;7151;52.246;4.820;2023-07-16T05:00:54;6.50;;;2.30;;
14141;SDS011;7151;52.246;4.820;2023-07-16T05:03:19;5.20;;;2.70;;
14141;SDS011;7151;52.246;4.820;2023-07-16T05:05:45;7.07;;;2.50;;
14141;SDS011;7151;52.246;4.820;2023-07-16T05:08:10;4.03;;;2.50;;
14141;SDS011;7151;52.246;4.820;2023-07-16T05:10:36;5.53;;;3.00;;
14141;SDS011;7151;52.246;4.820;2023-07-16T05:13:01;8.47;;;2.67;;
14141;SDS011;7151;52.246;4.820;2023-07-16T05:15:28;7.27;;;2.63;;
14141;SDS011;7151;52.246;4.820;2023-07-16T05:17:54;4.17;;;2.20;;
14141;SDS011;7151;52.246;4.820;2023-07-16T05:20:22;7.57;;;2.60;;
14141;SDS011;7151;52.246;4.820;2023-07-16T05:22:48;6.17;;;3.10;;
14141;SDS011;7151;52.246;4.820;2023-07-16T05:25:13;5.97;;;2.50;;
14141;SDS011;7151;52.246;4.820;2023-07-16T05:27:39;3.80;;;2.57;;
14141;SDS011;7151;52.246;4.820;2023-07-16T05:30:04;6.43;;;2.50;;
14141;SDS011;7151;52.246;4.820;2023-07-16T05:32:30;4.67;;;2.20;;
14141;SDS011;7151;52.246;4.820;2023-07-16T05:34:56;6.87;;;2.40;;
14141;SDS011;7151;52.246;4.820;2023-07-16T05:37:21;4.07;;;2.33;;
14141;SDS011;7151;52.246;4.820;2023-07-16T05:39:47;4.13;;;2.90;;
14141;SDS011;7151;52.246;4.820;2023-07-16T05:42:12;4.70;;;2.17;;
14141;SDS011;7151;52.246;4.820;2023-07-16T05:44:38;4.47;;;2.40;;
14141;SDS011;7151;52.246;4.820;2023-07-16T05:47:03;4.70;;;2.40;;
14141;SDS011;7151;52.246;4.820;2023-07-16T05:49:29;5.47;;;2.70;;
14141;SDS011;7151;52.246;4.820;2023-07-16T05:51:56;5.90;;;2.43;;
14141;SDS011;7151;52.246;4.820;2023-07-16T05:54:22;4.97;;;2.60;;
14141;SDS011;7151;52.246;4.820;2023-07-16T05:56:48;5.27;;;2.90;;
14141;SDS011;7151;52.246;4.820;2023-07-16T05:59:13;4.40;;;2.40;;
14141;SDS011;7151;52.246;4.820;2023-07-16T06:01:39;5.37;;;2.30;;
14141;SDS011;7151;52.246;4.820;2023-07-16T06:04:04;3.23;;;2.27;;
14141;SDS011;7151;52.246;4.820;2023-07-16T06:06:30;4.70;;;2.50;;
14141;SDS011;7151;52.246;4.820;2023-07-16T06:08:56;3.80;;;1.90;;
14141;SDS011;7151;52.246;4.820;2023-07-16T06:11:21;5.33;;;2.60;;
14141;SDS011;7151;52.246;4.820;2023-07-16T06:13:47;5.97;;;2.37;;
14141;SDS011;7151;52.246;4.820;2023-07-16T06:16:13;5.50;;;2.17;;
14141;SDS011;7151;52.246;4.820;2023-07-16T06:18:38;4.77;;;2.50;;
14141;SDS011;7151;52.246;4.820;2023-07-16T06:21:03;4.50;;;2.93;;
14141;SDS011;7151;52.246;4.820;2023-07-16T06:23:29;4.37;;;2.63;;
14141;SDS011;7151;52.246;4.820;2023-07-16T06:25:55;4.07;;;2.40;;
14141;SDS011;7151;52.246;4.820;2023-07-16T06:28:21;4.40;;;3.00;;
14141;SDS011;7151;52.246;4.820;2023-07-16T06:30:46;3.63;;;2.00;;
14141;SDS011;7151;52.246;4.820;2023-07-16T06:33:12;3.37;;;2.20;;
14141;SDS011;7151;52.246;4.820;2023-07-16T06:35:37;6.63;;;2.70;;
14141;SDS011;7151;52.246;4.820;2023-07-16T06:38:03;3.77;;;2.63;;
14141;SDS011;7151;52.246;4.820;2023-07-16T06:40:29;4.27;;;2.53;;
14141;SDS011;7151;52.246;4.820;2023-07-16T06:42:55;4.33;;;2.50;;
14141;SDS011;7151;52.246;4.820;2023-07-16T06:45:21;7.23;;;2.53;;
14141;SDS011;7151;52.246;4.820;2023-07-16T06:47:47;4.10;;;2.67;;
14141;SDS011;7151;52.246;4.820;2023-07-16T06:50:13;5.97;;;3.00;;
14141;SDS011;7151;52.246;4.820;2023-07-16T06:52:39;6.90;;;3.30;;
14141;SDS011;7151;52.246;4.820;2023-07-16T06:55:04;4.37;;;2.77;;
14141;SDS011;7151;52.246;4.820;2023-07-16T06:57:30;7.37;;;2.90;;
14141;SDS011;7151;52.246;4.820;2023-07-16T06:59:56;7.97;;;2.80;;
14141;SDS011;7151;52.246;4.820;2023-07-16T07:02:22;6.33;;;2.63;;
14141;SDS011;7151;52.246;4.820;2023-07-16T07:04:48;5.77;;;3.07;;
14141;SDS011;7151;52.246;4.820;2023-07-16T07:07:15;4.97;;;2.30;;
14141;SDS011;7151;52.246;4.820;2023-07-16T07:09:40;5.63;;;2.40;;
14141;SDS011;7151;52.246;4.820;2023-07-16T07:12:06;9.13;;;2.87;;
14141;SDS011;7151;52.246;4.820;2023-07-16T07:14:34;3.07;;;2.10;;
14141;SDS011;7151;52.246;4.820;2023-07-16T07:17:00;3.90;;;2.60;;
14141;SDS011;7151;52.246;4.820;2023-07-16T07:19:25;4.93;;;2.70;;
14141;SDS011;7151;52.246;4.820;2023-07-16T07:21:51;5.77;;;2.53;;
14141;SDS011;7151;52.246;4.820;2023-07-16T07:24:17;5.33;;;2.87;;
14141;SDS011;7151;52.246;4.820;2023-07-16T07:26:43;5.03;;;2.50;;
14141;SDS011;7151;52.246;4.820;2023-07-16T07:29:08;2.83;;;2.30;;
14141;SDS011;7151;52.246;4.820;2023-07-16T07:31:34;3.87;;;2.37;;
14141;SDS011;7151;52.246;4.820;2023-07-16T07:33:59;6.40;;;2.63;;
14141;SDS011;7151;52.246;4.820;2023-07-16T07:36:25;5.00;;;2.83;;
14141;SDS011;7151;52.246;4.820;2023-07-16T07:38:50;6.53;;;2.70;;
14141;SDS011;7151;52.246;4.820;2023-07-16T07:41:16;5.20;;;3.17;;
14141;SDS011;7151;52.246;4.820;2023-07-16T07:43:41;5.07;;;2.87;;
14141;SDS011;7151;52.246;4.820;2023-07-16T07:46:07;6.23;;;2.60;;
14141;SDS011;7151;52.246;4.820;2023-07-16T07:48:33;7.00;;;2.80;;
14141;SDS011;7151;52.246;4.820;2023-07-16T07:50:58;6.83;;;2.70;;
14141;SDS011;7151;52.246;4.820;2023-07-16T07:53:24;4.97;;;2.60;;
14141;SDS011;7151;52.246;4.820;2023-07-16T07:55:49;5.47;;;2.90;;
14141;SDS011;7151;52.246;4.820;2023-07-16T07:58:15;3.80;;;2.43;;
14141;SDS011;7151;52.246;4.820;2023-07-16T08:00:40;5.93;;;3.33;;
14141;SDS011;7151;52.246;4.820;2023-07-16T08:03:06;4.30;;;2.83;;
14141;SDS011;7151;52.246;4.820;2023-07-16T08:05:31;4.87;;;3.10;;
14141;SDS011;7151;52.246;4.820;2023-07-16T08:07:59;6.73;;;2.90;;
14141;SDS011;7151;52.246;4.820;2023-07-16T08:10:25;4.80;;;2.80;;
14141;SDS011;7151;52.246;4.820;2023-07-16T08:12:51;3.60;;;2.30;;
14141;SDS011;7151;52.246;4.820;2023-07-16T08:15:17;3.67;;;2.93;;
14141;SDS011;7151;52.246;4.820;2023-07-16T08:17:43;8.83;;;3.07;;
14141;SDS011;7151;52.246;4.820;2023-07-16T08:20:10;4.30;;;2.53;;
14141;SDS011;7151;52.246;4.820;2023-07-16T08:22:36;3.50;;;2.47;;
14141;SDS011;7151;52.246;4.820;2023-07-16T08:25:02;3.77;;;2.47;;
14141;SDS011;7151;52.246;4.820;2023-07-16T08:27:28;3.30;;;2.43;;
14141;SDS011;7151;52.246;4.820;2023-07-16T08:29:55;4.27;;;2.77;;
14141;SDS011;7151;52.246;4.820;2023-07-16T08:32:20;5.90;;;2.63;;
14141;SDS011;7151;52.246;4.820;2023-07-16T08:34:47;4.03;;;2.63;;
14141;SDS011;7151;52.246;4.820;2023-07-16T08:37:13;3.80;;;2.77;;
14141;SDS011;7151;52.246;4.820;2023-07-16T08:39:38;5.07;;;2.80;;
14141;SDS011;7151;52.246;4.820;2023-07-16T08:42:04;4.43;;;2.87;;
14141;SDS011;7151;52.246;4.820;2023-07-16T08:44:30;3.37;;;2.50;;
14141;SDS011;7151;52.246;4.820;2023-07-16T08:46:56;3.53;;;2.50;;
14141;SDS011;7151;52.246;4.820;2023-07-16T08:49:22;3.70;;;2.40;;
14141;SDS011;7151;52.246;4.820;2023-07-16T08:51:48;7.03;;;2.60;;
14141;SDS011;7151;52.246;4.820;2023-07-16T08:54:14;3.53;;;2.43;;
14141;SDS011;7151;52.246;4.820;2023-07-16T08:56:44;7.83;;;2.20;;
14141;SDS011;7151;52.246;4.820;2023-07-16T08:59:12;3.53;;;1.87;;
14141;SDS011;7151;52.246;4.820;2023-07-16T09:01:39;5.13;;;2.07;;
14141;SDS011;7151;52.246;4.820;2023-07-16T09:04:05;4.50;;;2.37;;
14141;SDS011;7151;52.246;4.820;2023-07-16T09:06:30;7.40;;;2.33;;
14141;SDS011;7151;52.246;4.820;2023-07-16T09:08:56;6.60;;;2.50;;
14141;SDS011;7151;52.246;4.820;2023-07-16T09:11:21;5.77;;;3.00;;
14141;SDS011;7151;52.246;4.820;2023-07-16T09:13:50;4.90;;;2.53;;
14141;SDS011;7151;52.246;4.820;2023-07-16T09:16:18;2.63;;;2.10;;
14141;SDS011;7151;52.246;4.820;2023-07-16T09:18:45;5.43;;;2.63;;
14141;SDS011;7151;52.246;4.820;2023-07-16T09:21:11;3.20;;;2.10;;
14141;SDS011;7151;52.246;4.820;2023-07-16T09:23:37;5.67;;;2.60;;
14141;SDS011;7151;52.246;4.820;2023-07-16T09:26:03;4.70;;;2.73;;
14141;SDS011;7151;52.246;4.820;2023-07-16T09:28:33;4.27;;;2.40;;
14141;SDS011;7151;52.246;4.820;2023-07-16T09:31:05;4.97;;;2.80;;
14141;SDS011;7151;52.246;4.820;2023-07-16T09:33:32;4.03;;;2.87;;
14141;SDS011;7151;52.246;4.820;2023-07-16T09:35:57;4.93;;;2.57;;
14141;SDS011;7151;52.246;4.820;2023-07-16T09:38:27;3.63;;;2.50;;
14141;SDS011;7151;52.246;4.820;2023-07-16T09:40:55;5.67;;;2.90;;
14141;SDS011;7151;52.246;4.820;2023-07-16T09:43:21;4.47;;;2.63;;
14141;SDS011;7151;52.246;4.820;2023-07-16T09:45:47;6.10;;;2.60;;
14141;SDS011;7151;52.246;4.820;2023-07-16T09:48:12;3.77;;;2.20;;
14141;SDS011;7151;52.246;4.820;2023-07-16T09:50:39;7.83;;;2.67;;
14141;SDS011;7151;52.246;4.820;2023-07-16T09:53:10;4.00;;;2.60;;
14141;SDS011;7151;52.246;4.820;2023-07-16T09:55:37;3.80;;;2.17;;
14141;SDS011;7151;52.246;4.820;2023-07-16T09:58:06;4.47;;;2.63;;
14141;SDS011;7151;52.246;4.820;2023-07-16T10:00:35;4.57;;;2.40;;
14141;SDS011;7151;52.246;4.820;2023-07-16T10:03:02;4.97;;;2.30;;
14141;SDS011;7151;52.246;4.820;2023-07-16T10:05:28;4.10;;;2.63;;
14141;SDS011;7151;52.246;4.820;2023-07-16T10:07:55;4.00;;;1.90;;
14141;SDS011;7151;52.246;4.820;2023-07-16T10:13:21;3.80;;;2.13;;
14141;SDS011;7151;52.246;4.820;2023-07-16T10:15:51;2.57;;;2.00;;
14141;SDS011;7151;52.246;4.820;2023-07-16T10:18:25;4.50;;;2.10;;
14141;SDS011;7151;52.246;4.820;2023-07-16T10:21:02;3.97;;;2.23;;
14141;SDS011;7151;52.246;4.820;2023-07-16T10:23:38;4.17;;;2.23;;
14141;SDS011;7151;52.246;4.820;2023-07-16T10:26:05;8.57;;;2.50;;
14141;SDS011;7151;52.246;4.820;2023-07-16T10:28:32;4.67;;;2.00;;
14141;SDS011;7151;52.246;4.820;2023-07-16T10:30:58;6.30;;;1.83;;
14141;SDS011;7151;52.246;4.820;2023-07-16T10:33:23;4.40;;;2.43;;
14141;SDS011;7151;52.246;4.820;2023-07-16T10:35:49;4.70;;;2.20;;
14141;SDS011;7151;52.246;4.820;2023-07-16T10:38:14;8.10;;;2.13;;
14141;SDS011;7151;52.246;4.820;2023-07-16T10:40:40;5.00;;;2.20;;
14141;SDS011;7151;52.246;4.820;2023-07-16T10:43:07;3.30;;;2.20;;
14141;SDS011;7151;52.246;4.820;2023-07-16T10:45:33;3.10;;;1.87;;
14141;SDS011;7151;52.246;4.820;2023-07-16T10:47:58;2.90;;;1.90;;
14141;SDS011;7151;52.246;4.820;2023-07-16T10:50:24;2.93;;;1.70;;
14141;SDS011;7151;52.246;4.820;2023-07-16T10:52:53;4.30;;;1.53;;
14141;SDS011;7151;52.246;4.820;2023-07-16T10:55:19;4.20;;;1.97;;
14141;SDS011;7151;52.246;4.820;2023-07-16T10:57:48;4.13;;;1.30;;
14141;SDS011;7151;52.246;4.820;2023-07-16T11:00:16;8.60;;;1.60;;
14141;SDS011;7151;52.246;4.820;2023-07-16T11:02:42;4.33;;;1.33;;
14141;SDS011;7151;52.246;4.820;2023-07-16T11:05:09;7.03;;;1.77;;
14141;SDS011;7151;52.246;4.820;2023-07-16T11:07:36;2.43;;;1.30;;
14141;SDS011;7151;52.246;4.820;2023-07-16T11:10:02;4.67;;;1.47;;
14141;SDS011;7151;52.246;4.820;2023-07-16T11:12:28;3.20;;;1.60;;
14141;SDS011;7151;52.246;4.820;2023-07-16T11:14:54;2.90;;;1.70;;
14141;SDS011;7151;52.246;4.820;2023-07-16T11:17:20;2.03;;;1.40;;
14141;SDS011;7151;52.246;4.820;2023-07-16T11:19:49;2.30;;;1.10;;
14141;SDS011;7151;52.246;4.820;2023-07-16T11:22:16;4.00;;;1.07;;
14141;SDS011;7151;52.246;4.820;2023-07-16T11:24:43;4.03;;;1.40;;
14141;SDS011;7151;52.246;4.820;2023-07-16T11:27:18;4.80;;;1.43;;
14141;SDS011;7151;52.246;4.820;2023-07-16T11:29:49;3.00;;;1.50;;
14141;SDS011;7151;52.246;4.820;2023-07-16T11:32:26;5.27;;;1.33;;
14141;SDS011;7151;52.246;4.820;2023-07-16T11:35:00;6.40;;;1.70;;
14141;SDS011;7151;52.246;4.820;2023-07-16T11:37:27;2.43;;;1.23;;
14141;SDS011;7151;52.246;4.820;2023-07-16T11:42:30;3.90;;;1.57;;
14141;SDS011;7151;52.246;4.820;2023-07-16T11:44:57;1.70;;;0.90;;
14141;SDS011;7151;52.246;4.820;2023-07-16T11:47:23;3.00;;;1.30;;
14141;SDS011;7151;52.246;4.820;2023-07-16T11:49:49;2.80;;;1.10;;
14141;SDS011;7151;52.246;4.820;2023-07-16T11:52:18;2.10;;;1.03;;
14141;SDS011;7151;52.246;4.820;2023-07-16T11:54:57;3.37;;;0.93;;
14141;SDS011;7151;52.246;4.820;2023-07-16T11:57:24;2.10;;;0.93;;
14141;SDS011;7151;52.246;4.820;2023-07-16T11:59:50;1.43;;;0.80;;
14141;SDS011;7151;52.246;4.820;2023-07-16T12:02:15;3.27;;;1.10;;
14141;SDS011;7151;52.246;4.820;2023-07-16T12:04:41;3.67;;;1.20;;
14141;SDS011;7151;52.246;4.820;2023-07-16T12:07:07;5.03;;;1.00;;
14141;SDS011;7151;52.246;4.820;2023-07-16T12:09:33;5.57;;;1.20;;
14141;SDS011;7151;52.246;4.820;2023-07-16T12:11:59;2.60;;;1.00;;
14141;SDS011;7151;52.246;4.820;2023-07-16T12:14:26;3.30;;;1.30;;
14141;SDS011;7151;52.246;4.820;2023-07-16T12:16:51;2.23;;;1.23;;
14141;SDS011;7151;52.246;4.820;2023-07-16T12:19:17;3.03;;;0.90;;
14141;SDS011;7151;52.246;4.820;2023-07-16T12:21:42;3.13;;;1.00;;
14141;SDS011;7151;52.246;4.820;2023-07-16T12:24:08;3.07;;;1.00;;
14141;SDS011;7151;52.246;4.820;2023-07-16T12:26:34;1.63;;;0.97;;
14141;SDS011;7151;52.246;4.820;2023-07-16T12:29:00;2.93;;;1.13;;
14141;SDS011;7151;52.246;4.820;2023-07-16T12:31:27;1.87;;;1.00;;
14141;SDS011;7151;52.246;4.820;2023-07-16T12:33:54;2.13;;;1.17;;
14141;SDS011;7151;52.246;4.820;2023-07-16T12:36:20;3.20;;;1.20;;
14141;SDS011;7151;52.246;4.820;2023-07-16T12:38:45;2.87;;;1.73;;
14141;SDS011;7151;52.246;4.820;2023-07-16T12:41:11;2.03;;;0.90;;
14141;SDS011;7151;52.246;4.820;2023-07-16T12:43:36;4.50;;;1.27;;
14141;SDS011;7151;52.246;4.820;2023-07-16T12:46:03;4.17;;;1.40;;
14141;SDS011;7151;52.246;4.820;2023-07-16T12:48:29;2.90;;;1.53;;
14141;SDS011;7151;52.246;4.820;2023-07-16T12:50:56;2.83;;;1.03;;
14141;SDS011;7151;52.246;4.820;2023-07-16T12:53:22;3.20;;;1.23;;
14141;SDS011;7151;52.246;4.820;2023-07-16T12:55:50;1.97;;;1.13;;
14141;SDS011;7151;52.246;4.820;2023-07-16T12:58:16;3.13;;;1.70;;
14141;SDS011;7151;52.246;4.820;2023-07-16T13:00:42;4.33;;;1.23;;
14141;SDS011;7151;52.246;4.820;2023-07-16T13:03:08;6.50;;;1.60;;
14141;SDS011;7151;52.246;4.820;2023-07-16T13:05:36;6.23;;;1.47;;
14141;SDS011;7151;52.246;4.820;2023-07-16T13:08:02;2.77;;;1.20;;
14141;SDS011;7151;52.246;4.820;2023-07-16T13:10:28;5.10;;;1.20;;
14141;SDS011;7151;52.246;4.820;2023-07-16T13:12:53;1.97;;;1.00;;
14141;SDS011;7151;52.246;4.820;2023-07-16T13:15:19;5.23;;;1.40;;
14141;SDS011;7151;52.246;4.820;2023-07-16T13:17:45;4.73;;;1.23;;
14141;SDS011;7151;52.246;4.820;2023-07-16T13:20:10;3.47;;;1.30;;
14141;SDS011;7151;52.246;4.820;2023-07-16T13:22:36;4.60;;;1.20;;
14141;SDS011;7151;52.246;4.820;2023-07-16T13:25:02;3.20;;;1.30;;
14141;SDS011;7151;52.246;4.820;2023-07-16T13:27:27;3.00;;;1.10;;
14141;SDS011;7151;52.246;4.820;2023-07-16T13:29:53;2.70;;;1.00;;
14141;SDS011;7151;52.246;4.820;2023-07-16T13:32:18;6.80;;;1.20;;
14141;SDS011;7151;52.246;4.820;2023-07-16T13:34:44;3.23;;;1.17;;
14141;SDS011;7151;52.246;4.820;2023-07-16T13:37:09;5.53;;;1.63;;
14141;SDS011;7151;52.246;4.820;2023-07-16T13:39:35;5.67;;;1.20;;
14141;SDS011;7151;52.246;4.820;2023-07-16T13:42:01;2.23;;;1.47;;
14141;SDS011;7151;52.246;4.820;2023-07-16T13:44:27;3.33;;;1.10;;
14141;SDS011;7151;52.246;4.820;2023-07-16T13:46:52;6.90;;;1.20;;
14141;SDS011;7151;52.246;4.820;2023-07-16T13:49:18;2.40;;;0.97;;
14141;SDS011;7151;52.246;4.820;2023-07-16T13:51:43;4.10;;;1.30;;
14141;SDS011;7151;52.246;4.820;2023-07-16T13:54:10;3.90;;;0.83;;
14141;SDS011;7151;52.246;4.820;2023-07-16T13:56:36;5.47;;;1.40;;
14141;SDS011;7151;52.246;4.820;2023-07-16T13:59:02;1.50;;;0.97;;
14141;SDS011;7151;52.246;4.820;2023-07-16T14:01:28;3.83;;;1.37;;
14141;SDS011;7151;52.246;4.820;2023-07-16T14:03:54;2.90;;;1.10;;
14141;SDS011;7151;52.246;4.820;2023-07-16T14:06:20;3.43;;;1.63;;
14141;SDS011;7151;52.246;4.820;2023-07-16T14:08:46;2.13;;;1.07;;
14141;SDS011;7151;52.246;4.820;2023-07-16T14:11:11;1.50;;;0.90;;
14141;SDS011;7151;52.246;4.820;2023-07-16T14:13:37;3.77;;;1.43;;
14141;SDS011;7151;52.246;4.820;2023-07-16T14:16:02;3.17;;;1.50;;
14141;SDS011;7151;52.246;4.820;2023-07-16T14:18:28;3.50;;;1.47;;
14141;SDS011;7151;52.246;4.820;2023-07-16T14:20:54;4.30;;;1.33;;
14141;SDS011;7151;52.246;4.820;2023-07-16T14:23:19;5.80;;;1.27;;
14141;SDS011;7151;52.246;4.820;2023-07-16T14:25:45;2.27;;;1.20;;
14141;SDS011;7151;52.246;4.820;2023-07-16T14:28:11;1.97;;;1.37;;
14141;SDS011;7151;52.246;4.820;2023-07-16T14:30:36;2.70;;;1.20;;
14141;SDS011;7151;52.246;4.820;2023-07-16T14:33:04;1.90;;;1.27;;
14141;SDS011;7151;52.246;4.820;2023-07-16T14:35:30;4.13;;;1.50;;
14141;SDS011;7151;52.246;4.820;2023-07-16T14:37:58;2.53;;;0.90;;
14141;SDS011;7151;52.246;4.820;2023-07-16T14:40:24;4.10;;;1.50;;
14141;SDS011;7151;52.246;4.820;2023-07-16T14:42:49;2.97;;;1.30;;
14141;SDS011;7151;52.246;4.820;2023-07-16T14:45:15;3.17;;;0.97;;
14141;SDS011;7151;52.246;4.820;2023-07-16T14:47:40;3.22;;;0.95;;
14141;SDS011;7151;52.246;4.820;2023-07-16T14:50:06;2.83;;;1.30;;
14141;SDS011;7151;52.246;4.820;2023-07-16T14:52:31;3.72;;;1.77;;
14141;SDS011;7151;52.246;4.820;2023-07-16T14:55:01;4.30;;;1.50;;
14141;SDS011;7151;52.246;4.820;2023-07-16T14:57:29;3.78;;;1.10;;
14141;SDS011;7151;52.246;4.820;2023-07-16T14:59:55;3.22;;;1.40;;
14141;SDS011;7151;52.246;4.820;2023-07-16T15:02:20;3.80;;;1.42;;
14141;SDS011;7151;52.246;4.820;2023-07-16T15:04:46;2.97;;;1.48;;
14141;SDS011;7151;52.246;4.820;2023-07-16T15:07:11;4.22;;;1.85;;